Thomson Majesty — 9HA2188 — position and weather

sailwx.info

Track history (hours):
 
Tides and Currents Weather Stations Pressure Air Temp Water Temp Dewpoint Dewpoint Depression Visibility Wind Speed Wind Dir Waves Ship Positions

Thomson Majesty

Last reported at 2016-Jul-26 15:32 UTC. Time now 2016-Jul-26 15:57 UTC.
Position N 39°33' E 002°38'.

Length 207 m; draft 6.2 m.

Type: Ship. MMSI: 248124000.

Date/timePositionNaut miles runAvg speedWind from/ knotsBaromVisibWave heightAir tempDewpointWater temp
2016-Jul-26 15:32N 39°33' E 002°38'0 0.0
2016-Jul-26 14:32N 39°33' E 002°38'0 0.0
2016-Jul-26 13:32N 39°33' E 002°38'0 0.0
2016-Jul-26 12:32N 39°33' E 002°38'0 0.0
2016-Jul-26 11:32N 39°33' E 002°38'0 0.0
2016-Jul-26 10:32N 39°33' E 002°38'0 0.0
2016-Jul-26 09:32N 39°33' E 002°38'0 0.0
2016-Jul-26 08:32N 39°33' E 002°38'0 0.0
2016-Jul-26 07:32N 39°33' E 002°38'0 0.0
2016-Jul-26 06:32N 39°33' E 002°38'0 0.0
2016-Jul-26 05:32N 39°33' E 002°38'0 0.0
2016-Jul-26 04:32N 39°33' E 002°38'0 0.0
2016-Jul-26 03:33N 39°33' E 002°38'8 8.1
2016-Jul-26 02:33N 39°25' E 002°40'1111.1
2016-Jul-26 01:33N 39°15' E 002°45'1111.3
2016-Jul-26 00:33N 39°05' E 002°53'9 9.5
2016-Jul-25 23:33N 39°07' E 003°05'1110.9
2016-Jul-25 22:34N 39°13' E 003°16'1110.9
2016-Jul-25 21:33N 39°19' E 003°28'1110.8
2016-Jul-25 20:33N 39°25' E 003°40'1410.8
2016-Jul-25 19:14N 39°33' E 003°55'810.7
2016-Jul-25 18:31N 39°37' E 004°04'1010.8
2016-Jul-25 17:33N 39°43' E 004°15'296 7.0
2016-Jul-23 23:07N 41°38' E 010°14'3015.0
2016-Jul-23 21:06N 41°50' E 010°52'712.6
2016-Jul-23 20:33N 41°53' E 011°00'2512.5
2016-Jul-23 18:33N 42°03' E 011°31'6 0.4
2016-Jul-23 03:09N 41°60' E 011°39'711.8
2016-Jul-23 02:33N 41°53' E 011°36'1716.9
2016-Jul-23 01:33N 41°39' E 011°49'1717.5
2016-Jul-23 00:33N 41°25' E 012°03'1817.5
2016-Jul-22 23:33N 41°10' E 012°16'1717.3
2016-Jul-22 22:33N 40°56' E 012°29'1717.1
2016-Jul-22 21:33N 40°42' E 012°42'1716.5
2016-Jul-22 20:31N 40°36' E 013°03'1617.0
2016-Jul-22 19:33N 40°33' E 013°24'1616.2
2016-Jul-22 18:34N 40°32' E 013°46'1615.8
2016-Jul-22 17:33N 40°36' E 014°06'1312.8
2016-Jul-22 16:33N 40°39' E 014°22'0 0.3
2016-Jul-22 15:30N 40°38' E 014°23'0 0.0
2016-Jul-22 14:30N 40°38' E 014°23'0 0.0
2016-Jul-22 13:30N 40°38' E 014°23'0 0.0
2016-Jul-22 12:30N 40°38' E 014°23'0 0.0
2016-Jul-22 11:30N 40°38' E 014°23'0 0.0
2016-Jul-22 10:30N 40°38' E 014°23'0 0.0
2016-Jul-22 09:30N 40°38' E 014°23'0 0.0
2016-Jul-22 08:30N 40°38' E 014°23'0 0.0
2016-Jul-22 07:24N 40°38' E 014°23'0 0.0
2016-Jul-22 04:33N 40°38' E 014°22'10 9.8
2016-Jul-22 03:34N 40°35' E 014°11'1413.8
2016-Jul-22 02:34N 40°23' E 014°01'1211.8
2016-Jul-22 01:34N 40°13' E 013°53'1212.2
2016-Jul-22 00:34N 40°02' E 013°46'1212.1
2016-Jul-21 23:34N 39°52' E 013°38'1212.0
2016-Jul-21 22:33N 39°42' E 013°30'1716.8
2016-Jul-21 21:33N 39°27' E 013°19'1716.9
2016-Jul-21 20:33N 39°12' E 013°09'1717.0
2016-Jul-21 19:33N 38°58' E 012°57'1716.7
2016-Jul-21 18:33N 38°43' E 012°46'1616.3
2016-Jul-21 17:33N 38°29' E 012°35'1515.5
2016-Jul-21 16:33N 38°16' E 012°26'1413.7
2016-Jul-21 15:33N 38°02' E 012°28'3 2.6
2016-Jul-21 14:33N 38°01' E 012°30'0 0.0
2016-Jul-21 13:33N 38°01' E 012°30'0 0.0
2016-Jul-21 12:33N 38°01' E 012°30'0 0.0
2016-Jul-21 11:33N 38°01' E 012°30'0 0.0
2016-Jul-21 10:33N 38°01' E 012°30'0 0.0
2016-Jul-21 09:33N 38°01' E 012°30'0 0.0
2016-Jul-21 08:33N 38°01' E 012°30'0 0.0
2016-Jul-21 07:33N 38°01' E 012°30'0 0.0
2016-Jul-21 06:33N 38°01' E 012°30'0 0.1
2016-Jul-21 05:33N 38°01' E 012°30'7 6.8
2016-Jul-21 04:33N 38°02' E 012°22'1514.5
2016-Jul-21 03:33N 38°05' E 012°04'1616.0
2016-Jul-21 02:33N 38°07' E 011°44'1515.4
2016-Jul-21 01:33N 38°09' E 011°24'1212.3
2016-Jul-21 00:33N 38°11' E 011°09'1212.4
2016-Jul-20 23:33N 38°12' E 010°53'1212.4
2016-Jul-20 22:33N 38°13' E 010°38'1212.2
2016-Jul-20 21:33N 38°16' E 010°22'1212.2
2016-Jul-20 20:32N 38°18' E 010°07'1515.5
2016-Jul-20 19:33N 38°20' E 009°47'1616.2
2016-Jul-20 18:33N 38°22' E 009°27'1616.1
2016-Jul-20 17:33N 38°24' E 009°06'1616.5
2016-Jul-20 16:33N 38°26' E 008°46'1717.0
2016-Jul-20 15:33N 38°29' E 008°24'1716.9
2016-Jul-20 14:33N 38°31' E 008°03'1916.0
2016-Jul-20 13:21N 38°34' E 007°38'1315.6
2016-Jul-20 12:32N 38°35' E 007°22'1616.0
2016-Jul-20 11:32N 38°38' E 007°02'4916.1
2016-Jul-20 08:29N 38°44' E 005°60'3316.3
2016-Jul-20 06:28N 38°49' E 005°18'1617.0
2016-Jul-20 05:33N 38°51' E 004°58'1616.2
2016-Jul-20 04:34N 38°53' E 004°38'1615.8
2016-Jul-20 03:33N 38°56' E 004°18'1515.4
2016-Jul-20 02:33N 38°58' E 003°58'1615.7
2016-Jul-20 01:33N 38°60' E 003°38'1615.6
2016-Jul-20 00:33N 39°02' E 003°18'1615.8
2016-Jul-19 23:34N 39°04' E 002°58'1514.7
2016-Jul-19 22:34N 39°15' E 002°45'1615.5
2016-Jul-19 21:33N 39°30' E 002°39'4 3.5
2016-Jul-19 20:31N 39°33' E 002°38'0 0.0
2016-Jul-19 19:31N 39°33' E 002°38'0 0.0
2016-Jul-19 18:31N 39°33' E 002°38'0 0.0
2016-Jul-19 17:31N 39°33' E 002°38'0 0.0
2016-Jul-19 16:31N 39°33' E 002°38'0 0.0
2016-Jul-19 15:31N 39°33' E 002°38'0 0.0
2016-Jul-19 14:31N 39°33' E 002°38'0 0.0
2016-Jul-19 13:31N 39°33' E 002°38'0 0.0
2016-Jul-19 12:31N 39°33' E 002°38'0 0.0
2016-Jul-19 11:31N 39°33' E 002°38'0 0.0
2016-Jul-19 10:31N 39°33' E 002°38'0 0.0
2016-Jul-19 09:31N 39°33' E 002°38'0 0.0
2016-Jul-19 08:31N 39°33' E 002°38'0 0.0
2016-Jul-19 07:31N 39°33' E 002°38'0 0.0
2016-Jul-19 04:31N 39°33' E 002°38'0 0.0
2016-Jul-19 03:33N 39°33' E 002°38'7 7.1
2016-Jul-19 02:33N 39°26' E 002°35'1414.0
2016-Jul-19 01:33N 39°30' E 002°18'1312.9
2016-Jul-19 00:33N 39°43' E 002°20'1616.0
2016-Jul-18 23:33N 39°54' E 002°34'1515.5
2016-Jul-18 22:34N 40°05' E 002°48'1212.0
2016-Jul-18 21:33N 40°10' E 003°02'10 9.0
2016-Jul-18 20:25N 40°06' E 003°14'1112.0
2016-Jul-18 19:31N 39°55' E 003°17'9 9.1
2016-Jul-18 18:33N 39°49' E 003°09'1 0.1
2016-Jul-18 08:33N 39°49' E 003°08'0 0.0
2016-Jul-18 06:09N 39°49' E 003°08'0 0.0
2016-Jul-18 05:29N 39°49' E 003°08'0 0.3
2016-Jul-18 04:33N 39°49' E 003°09'17 8.1
2016-Jul-18 02:26N 40°06' E 003°11'910.0
2016-Jul-18 01:33N 40°13' E 003°06'10 9.8
2016-Jul-18 00:33N 40°22' E 002°59'1010.2
2016-Jul-17 23:34N 40°30' E 002°52'1010.3
2016-Jul-17 22:33N 40°39' E 002°46'10 9.9
2016-Jul-17 21:33N 40°48' E 002°39'1010.2
2016-Jul-17 20:33N 40°57' E 002°31'1010.3
2016-Jul-17 19:33N 41°05' E 002°24'1110.7
2016-Jul-17 18:33N 41°15' E 002°17'9 8.9
2016-Jul-17 17:33N 41°22' E 002°11'0 0.2
2016-Jul-17 16:31N 41°22' E 002°11'0 0.0
2016-Jul-17 15:25N 41°22' E 002°11'0 0.0
2016-Jul-17 14:28N 41°22' E 002°11'0 0.0
2016-Jul-17 13:31N 41°22' E 002°11'0 0.0
2016-Jul-17 12:31N 41°22' E 002°11'0 0.0
2016-Jul-17 11:25N 41°22' E 002°11'0 0.0
2016-Jul-17 10:31N 41°22' E 002°11'0 0.0
2016-Jul-17 09:28N 41°22' E 002°11'0 0.0
2016-Jul-17 08:22N 41°22' E 002°11'0 0.0
2016-Jul-17 07:28N 41°22' E 002°11'0 0.0
2016-Jul-17 06:25N 41°22' E 002°11'7 3.9
2016-Jul-17 04:33N 41°20' E 002°20'1514.8
2016-Jul-17 03:33N 41°28' E 002°37'1312.9
2016-Jul-17 02:33N 41°34' E 002°51'1312.5
2016-Jul-17 01:33N 41°41' E 003°05'1212.1
2016-Jul-17 00:32N 41°48' E 003°19'1212.4
2016-Jul-16 23:33N 41°59' E 003°25'1312.7
2016-Jul-16 22:32N 42°12' E 003°30'1612.9
2016-Jul-16 21:18N 42°27' E 003°36'1012.9
2016-Jul-16 20:33N 42°36' E 003°40'1312.9
2016-Jul-16 19:33N 42°49' E 003°44'  
Track history (hours):
 
Tides and Currents Weather Stations Pressure Air Temp Water Temp Dewpoint Dewpoint Depression Visibility Wind Speed Wind Dir Waves Ship Positions

Thomson Majesty

Last reported at 2016-Jul-26 15:32 UTC. Time now 2016-Jul-26 15:57 UTC.
Position N 39°33' E 002°38'.

Length 207 m; draft 6.2 m.

Type: Ship. MMSI: 248124000.

Date/timePositionNaut miles runAvg speedWind from/ knotsBaromVisibWave heightAir tempDewpointWater temp
2016-Jul-26 15:32N 39°33' E 002°38'0 0.0
2016-Jul-26 14:32N 39°33' E 002°38'0 0.0
2016-Jul-26 13:32N 39°33' E 002°38'0 0.0
2016-Jul-26 12:32N 39°33' E 002°38'0 0.0
2016-Jul-26 11:32N 39°33' E 002°38'0 0.0
2016-Jul-26 10:32N 39°33' E 002°38'0 0.0
2016-Jul-26 09:32N 39°33' E 002°38'0 0.0
2016-Jul-26 08:32N 39°33' E 002°38'0 0.0
2016-Jul-26 07:32N 39°33' E 002°38'0 0.0
2016-Jul-26 06:32N 39°33' E 002°38'0 0.0
2016-Jul-26 05:32N 39°33' E 002°38'0 0.0
2016-Jul-26 04:32N 39°33' E 002°38'0 0.0
2016-Jul-26 03:33N 39°33' E 002°38'8 8.1
2016-Jul-26 02:33N 39°25' E 002°40'1111.1
2016-Jul-26 01:33N 39°15' E 002°45'1111.3
2016-Jul-26 00:33N 39°05' E 002°53'9 9.5
2016-Jul-25 23:33N 39°07' E 003°05'1110.9
2016-Jul-25 22:34N 39°13' E 003°16'1110.9
2016-Jul-25 21:33N 39°19' E 003°28'1110.8
2016-Jul-25 20:33N 39°25' E 003°40'1410.8
2016-Jul-25 19:14N 39°33' E 003°55'810.7
2016-Jul-25 18:31N 39°37' E 004°04'1010.8
2016-Jul-25 17:33N 39°43' E 004°15'296 7.0
2016-Jul-23 23:07N 41°38' E 010°14'3015.0
2016-Jul-23 21:06N 41°50' E 010°52'712.6
2016-Jul-23 20:33N 41°53' E 011°00'2512.5
2016-Jul-23 18:33N 42°03' E 011°31'6 0.4
2016-Jul-23 03:09N 41°60' E 011°39'711.8
2016-Jul-23 02:33N 41°53' E 011°36'1716.9
2016-Jul-23 01:33N 41°39' E 011°49'1717.5
2016-Jul-23 00:33N 41°25' E 012°03'1817.5
2016-Jul-22 23:33N 41°10' E 012°16'1717.3
2016-Jul-22 22:33N 40°56' E 012°29'1717.1
2016-Jul-22 21:33N 40°42' E 012°42'1716.5
2016-Jul-22 20:31N 40°36' E 013°03'1617.0
2016-Jul-22 19:33N 40°33' E 013°24'1616.2
2016-Jul-22 18:34N 40°32' E 013°46'1615.8
2016-Jul-22 17:33N 40°36' E 014°06'1312.8
2016-Jul-22 16:33N 40°39' E 014°22'0 0.3
2016-Jul-22 15:30N 40°38' E 014°23'0 0.0
2016-Jul-22 14:30N 40°38' E 014°23'0 0.0
2016-Jul-22 13:30N 40°38' E 014°23'0 0.0
2016-Jul-22 12:30N 40°38' E 014°23'0 0.0
2016-Jul-22 11:30N 40°38' E 014°23'0 0.0
2016-Jul-22 10:30N 40°38' E 014°23'0 0.0
2016-Jul-22 09:30N 40°38' E 014°23'0 0.0
2016-Jul-22 08:30N 40°38' E 014°23'0 0.0
2016-Jul-22 07:24N 40°38' E 014°23'0 0.0
2016-Jul-22 04:33N 40°38' E 014°22'10 9.8
2016-Jul-22 03:34N 40°35' E 014°11'1413.8
2016-Jul-22 02:34N 40°23' E 014°01'1211.8
2016-Jul-22 01:34N 40°13' E 013°53'1212.2
2016-Jul-22 00:34N 40°02' E 013°46'1212.1
2016-Jul-21 23:34N 39°52' E 013°38'1212.0
2016-Jul-21 22:33N 39°42' E 013°30'1716.8
2016-Jul-21 21:33N 39°27' E 013°19'1716.9
2016-Jul-21 20:33N 39°12' E 013°09'1717.0
2016-Jul-21 19:33N 38°58' E 012°57'1716.7
2016-Jul-21 18:33N 38°43' E 012°46'1616.3
2016-Jul-21 17:33N 38°29' E 012°35'1515.5
2016-Jul-21 16:33N 38°16' E 012°26'1413.7
2016-Jul-21 15:33N 38°02' E 012°28'3 2.6
2016-Jul-21 14:33N 38°01' E 012°30'0 0.0
2016-Jul-21 13:33N 38°01' E 012°30'0 0.0
2016-Jul-21 12:33N 38°01' E 012°30'0 0.0
2016-Jul-21 11:33N 38°01' E 012°30'0 0.0
2016-Jul-21 10:33N 38°01' E 012°30'0 0.0
2016-Jul-21 09:33N 38°01' E 012°30'0 0.0
2016-Jul-21 08:33N 38°01' E 012°30'0 0.0
2016-Jul-21 07:33N 38°01' E 012°30'0 0.0
2016-Jul-21 06:33N 38°01' E 012°30'0 0.1
2016-Jul-21 05:33N 38°01' E 012°30'7 6.8
2016-Jul-21 04:33N 38°02' E 012°22'1514.5
2016-Jul-21 03:33N 38°05' E 012°04'1616.0
2016-Jul-21 02:33N 38°07' E 011°44'1515.4
2016-Jul-21 01:33N 38°09' E 011°24'1212.3
2016-Jul-21 00:33N 38°11' E 011°09'1212.4
2016-Jul-20 23:33N 38°12' E 010°53'1212.4
2016-Jul-20 22:33N 38°13' E 010°38'1212.2
2016-Jul-20 21:33N 38°16' E 010°22'1212.2
2016-Jul-20 20:32N 38°18' E 010°07'1515.5
2016-Jul-20 19:33N 38°20' E 009°47'1616.2
2016-Jul-20 18:33N 38°22' E 009°27'1616.1
2016-Jul-20 17:33N 38°24' E 009°06'1616.5
2016-Jul-20 16:33N 38°26' E 008°46'1717.0
2016-Jul-20 15:33N 38°29' E 008°24'1716.9
2016-Jul-20 14:33N 38°31' E 008°03'1916.0
2016-Jul-20 13:21N 38°34' E 007°38'1315.6
2016-Jul-20 12:32N 38°35' E 007°22'1616.0
2016-Jul-20 11:32N 38°38' E 007°02'4916.1
2016-Jul-20 08:29N 38°44' E 005°60'3316.3
2016-Jul-20 06:28N 38°49' E 005°18'1617.0
2016-Jul-20 05:33N 38°51' E 004°58'1616.2
2016-Jul-20 04:34N 38°53' E 004°38'1615.8
2016-Jul-20 03:33N 38°56' E 004°18'1515.4
2016-Jul-20 02:33N 38°58' E 003°58'1615.7
2016-Jul-20 01:33N 38°60' E 003°38'1615.6
2016-Jul-20 00:33N 39°02' E 003°18'1615.8
2016-Jul-19 23:34N 39°04' E 002°58'1514.7
2016-Jul-19 22:34N 39°15' E 002°45'1615.5
2016-Jul-19 21:33N 39°30' E 002°39'4 3.5
2016-Jul-19 20:31N 39°33' E 002°38'0 0.0
2016-Jul-19 19:31N 39°33' E 002°38'0 0.0
2016-Jul-19 18:31N 39°33' E 002°38'0 0.0
2016-Jul-19 17:31N 39°33' E 002°38'0 0.0
2016-Jul-19 16:31N 39°33' E 002°38'0 0.0
2016-Jul-19 15:31N 39°33' E 002°38'0 0.0
2016-Jul-19 14:31N 39°33' E 002°38'0 0.0
2016-Jul-19 13:31N 39°33' E 002°38'0 0.0
2016-Jul-19 12:31N 39°33' E 002°38'0 0.0
2016-Jul-19 11:31N 39°33' E 002°38'0 0.0
2016-Jul-19 10:31N 39°33' E 002°38'0 0.0
2016-Jul-19 09:31N 39°33' E 002°38'0 0.0
2016-Jul-19 08:31N 39°33' E 002°38'0 0.0
2016-Jul-19 07:31N 39°33' E 002°38'0 0.0
2016-Jul-19 04:31N 39°33' E 002°38'0 0.0
2016-Jul-19 03:33N 39°33' E 002°38'7 7.1
2016-Jul-19 02:33N 39°26' E 002°35'1414.0
2016-Jul-19 01:33N 39°30' E 002°18'1312.9
2016-Jul-19 00:33N 39°43' E 002°20'1616.0
2016-Jul-18 23:33N 39°54' E 002°34'1515.5
2016-Jul-18 22:34N 40°05' E 002°48'1212.0
2016-Jul-18 21:33N 40°10' E 003°02'10 9.0
2016-Jul-18 20:25N 40°06' E 003°14'1112.0
2016-Jul-18 19:31N 39°55' E 003°17'9 9.1
2016-Jul-18 18:33N 39°49' E 003°09'1 0.1
2016-Jul-18 08:33N 39°49' E 003°08'0 0.0
2016-Jul-18 06:09N 39°49' E 003°08'0 0.0
2016-Jul-18 05:29N 39°49' E 003°08'0 0.3
2016-Jul-18 04:33N 39°49' E 003°09'17 8.1
2016-Jul-18 02:26N 40°06' E 003°11'910.0
2016-Jul-18 01:33N 40°13' E 003°06'10 9.8
2016-Jul-18 00:33N 40°22' E 002°59'1010.2
2016-Jul-17 23:34N 40°30' E 002°52'1010.3
2016-Jul-17 22:33N 40°39' E 002°46'10 9.9
2016-Jul-17 21:33N 40°48' E 002°39'1010.2
2016-Jul-17 20:33N 40°57' E 002°31'1010.3
2016-Jul-17 19:33N 41°05' E 002°24'1110.7
2016-Jul-17 18:33N 41°15' E 002°17'9 8.9
2016-Jul-17 17:33N 41°22' E 002°11'0 0.2
2016-Jul-17 16:31N 41°22' E 002°11'0 0.0
2016-Jul-17 15:25N 41°22' E 002°11'0 0.0
2016-Jul-17 14:28N 41°22' E 002°11'0 0.0
2016-Jul-17 13:31N 41°22' E 002°11'0 0.0
2016-Jul-17 12:31N 41°22' E 002°11'0 0.0
2016-Jul-17 11:25N 41°22' E 002°11'0 0.0
2016-Jul-17 10:31N 41°22' E 002°11'0 0.0
2016-Jul-17 09:28N 41°22' E 002°11'0 0.0
2016-Jul-17 08:22N 41°22' E 002°11'0 0.0
2016-Jul-17 07:28N 41°22' E 002°11'0 0.0
2016-Jul-17 06:25N 41°22' E 002°11'7 3.9
2016-Jul-17 04:33N 41°20' E 002°20'1514.8
2016-Jul-17 03:33N 41°28' E 002°37'1312.9
2016-Jul-17 02:33N 41°34' E 002°51'1312.5
2016-Jul-17 01:33N 41°41' E 003°05'1212.1
2016-Jul-17 00:32N 41°48' E 003°19'1212.4
2016-Jul-16 23:33N 41°59' E 003°25'1312.7
2016-Jul-16 22:32N 42°12' E 003°30'1612.9
2016-Jul-16 21:18N 42°27' E 003°36'1012.9
2016-Jul-16 20:33N 42°36' E 003°40'1312.9
2016-Jul-16 19:33N 42°49' E 003°44'  

Dump ship's entire track history